createdAt,value
2023-11-27T00:01:44.196Z,68.66
2023-11-27T00:04:46.309Z,68.56
2023-11-27T00:07:48.325Z,68.64
2023-11-27T00:10:50.322Z,68.59
2023-11-27T00:13:53.442Z,68.48
2023-11-27T00:16:55.372Z,68.23
2023-11-27T00:19:57.268Z,68.12
2023-11-27T00:22:59.168Z,67.65
2023-11-27T00:26:01.789Z,67.43
2023-11-27T00:29:03.918Z,67.15
2023-11-27T00:32:06.526Z,66.98
2023-11-27T00:35:09.553Z,66.47
2023-11-27T00:38:11.603Z,66.29
2023-11-27T00:41:16.151Z,66.21
2023-11-27T00:44:19.032Z,66.25
2023-11-27T00:47:22.062Z,66.34
2023-11-27T00:50:24.851Z,66.48
2023-11-27T00:53:26.801Z,66.44
2023-11-27T00:56:28.810Z,66.96
2023-11-27T00:59:32.832Z,66.88
2023-11-27T01:02:35.174Z,67.00
2023-11-27T01:05:37.740Z,66.90
2023-11-27T01:08:41.071Z,67.01
2023-11-27T01:11:43.028Z,66.92
2023-11-27T01:14:44.963Z,67.00
2023-11-27T01:17:47.147Z,66.91
2023-11-27T01:20:49.107Z,66.95
2023-11-27T01:23:51.653Z,66.75
2023-11-27T01:26:55.169Z,66.38
2023-11-27T01:29:57.094Z,66.44
2023-11-27T01:32:59.680Z,66.16
2023-11-27T01:36:01.708Z,66.16
2023-11-27T01:39:04.916Z,66.03
2023-11-27T01:42:07.011Z,66.22
2023-11-27T01:45:09.314Z,65.83
2023-11-27T01:48:12.137Z,65.62
2023-11-27T01:51:14.161Z,65.67
2023-11-27T01:54:16.094Z,65.55
2023-11-27T01:57:20.826Z,65.70
2023-11-27T02:00:23.753Z,65.51
2023-11-27T02:03:26.093Z,65.33
2023-11-27T02:06:29.220Z,65.64
2023-11-27T02:09:31.115Z,65.09
2023-11-27T02:12:33.051Z,65.19
2023-11-27T02:15:34.990Z,65.43
2023-11-27T02:18:37.491Z,65.39
2023-11-27T02:21:39.459Z,65.50
2023-11-27T02:24:41.967Z,65.64
2023-11-27T02:27:43.983Z,65.55
2023-11-27T02:30:46.100Z,65.74
2023-11-27T02:33:48.701Z,65.67
2023-11-27T02:36:50.686Z,65.77
2023-11-27T02:39:52.742Z,65.89
2023-11-27T02:42:55.226Z,65.92
2023-11-27T02:45:57.876Z,65.77
2023-11-27T02:49:01.179Z,65.78
2023-11-27T02:52:03.320Z,65.69
2023-11-27T02:55:06.964Z,65.75
2023-11-27T02:58:09.240Z,65.93
2023-11-27T03:01:12.048Z,65.45
2023-11-27T03:04:14.056Z,65.41
2023-11-27T03:07:16.627Z,65.32
2023-11-27T03:10:18.775Z,65.38
2023-11-27T03:13:20.937Z,65.24
2023-11-27T03:16:23.015Z,65.15
2023-11-27T03:19:32.410Z,64.96
2023-11-27T03:22:37.151Z,65.04
2023-11-27T03:25:39.200Z,65.15
2023-11-27T03:28:42.753Z,64.90
2023-11-27T03:31:44.886Z,64.79
2023-11-27T03:34:46.894Z,64.63
2023-11-27T03:37:49.314Z,64.45
2023-11-27T03:40:51.283Z,64.50
2023-11-27T03:43:53.316Z,63.96
2023-11-27T03:46:55.327Z,63.64
2023-11-27T03:49:59.281Z,63.18
2023-11-27T03:53:01.462Z,63.42
2023-11-27T03:56:03.995Z,63.09
2023-11-27T03:59:06.661Z,62.92
2023-11-27T04:02:10.886Z,63.02
2023-11-27T04:05:12.889Z,62.72
2023-11-27T04:08:15.056Z,62.80
2023-11-27T04:11:17.572Z,62.67
2023-11-27T04:14:19.571Z,62.69
2023-11-27T04:17:22.111Z,62.56
2023-11-27T04:20:24.271Z,62.67
2023-11-27T04:23:26.348Z,62.53
2023-11-27T04:26:28.373Z,62.46
2023-11-27T04:29:30.411Z,62.38
2023-11-27T04:32:32.576Z,62.94
2023-11-27T04:35:34.843Z,62.87
2023-11-27T04:38:37.545Z,62.74
2023-11-27T04:41:41.096Z,62.89
2023-11-27T04:44:43.236Z,63.20
2023-11-27T04:47:45.584Z,63.46
2023-11-27T04:50:47.632Z,63.30
2023-11-27T04:53:49.618Z,63.52
2023-11-27T04:56:51.705Z,63.77
2023-11-27T04:59:57.101Z,63.94
2023-11-27T05:02:59.107Z,63.78
2023-11-27T05:06:01.339Z,63.93
2023-11-27T05:09:04.282Z,64.23
2023-11-27T05:12:07.139Z,64.21
2023-11-27T05:15:10.181Z,64.48
2023-11-27T05:18:14.104Z,64.53
2023-11-27T05:21:16.724Z,64.67
2023-11-27T05:24:18.769Z,64.68
2023-11-27T05:27:20.819Z,64.86
2023-11-27T05:30:23.155Z,64.74
2023-11-27T05:33:28.419Z,64.87
2023-11-27T05:36:31.232Z,64.72
2023-11-27T05:39:33.399Z,64.88
2023-11-27T05:42:41.163Z,65.16
2023-11-27T05:45:43.543Z,64.89
2023-11-27T05:48:45.874Z,65.43
2023-11-27T05:51:47.969Z,65.41
2023-11-27T05:54:50.163Z,65.42
2023-11-27T05:57:52.205Z,65.64
2023-11-27T06:00:55.705Z,65.60
2023-11-27T06:03:57.853Z,65.46
2023-11-27T06:06:59.882Z,65.21
2023-11-27T06:10:04.016Z,64.92
2023-11-27T06:13:06.137Z,64.73
2023-11-27T06:16:10.679Z,64.58
2023-11-27T06:19:12.850Z,64.37
2023-11-27T06:22:15.644Z,63.99
2023-11-27T06:25:17.735Z,64.14
2023-11-27T06:28:19.794Z,63.88
2023-11-27T06:31:22.431Z,63.63
2023-11-27T06:34:24.475Z,63.58
2023-11-27T06:37:28.414Z,63.59
2023-11-27T06:40:38.148Z,63.30
2023-11-27T06:43:47.470Z,63.51
2023-11-27T06:46:49.614Z,62.93
2023-11-27T06:49:51.692Z,63.06
2023-11-27T06:52:54.102Z,62.91
2023-11-27T06:55:56.157Z,63.01
2023-11-27T06:58:58.080Z,62.95
2023-11-27T07:02:00.051Z,62.89
2023-11-27T07:05:02.105Z,62.85
2023-11-27T07:08:04.777Z,62.96
2023-11-27T07:11:08.066Z,63.23
2023-11-27T07:14:09.950Z,63.19
2023-11-27T07:17:12.115Z,63.13
2023-11-27T07:20:19.218Z,62.85
2023-11-27T07:23:23.186Z,62.75
2023-11-27T07:26:25.893Z,62.43
2023-11-27T07:29:28.719Z,61.73
2023-11-27T07:32:31.613Z,61.51
2023-11-27T07:35:33.654Z,61.24
2023-11-27T07:38:35.637Z,61.54
2023-11-27T07:41:38.365Z,61.67
2023-11-27T07:44:45.743Z,61.98
2023-11-27T07:47:49.146Z,61.51
2023-11-27T07:50:52.351Z,61.18
2023-11-27T07:53:54.373Z,60.61
2023-11-27T07:56:56.280Z,60.66
2023-11-27T07:59:58.349Z,60.44
2023-11-27T08:03:00.845Z,60.60
2023-11-27T08:06:04.243Z,60.67
2023-11-27T08:09:06.555Z,60.41
2023-11-27T08:12:13.973Z,60.55
2023-11-27T08:15:20.413Z,60.61
2023-11-27T08:18:23.470Z,60.67
2023-11-27T08:21:26.320Z,60.88
2023-11-27T08:24:28.387Z,61.00
2023-11-27T08:27:31.229Z,61.09
2023-11-27T08:30:34.545Z,61.11
2023-11-27T08:33:38.193Z,61.24
2023-11-27T08:36:41.349Z,61.29
2023-11-27T08:39:44.953Z,61.21
2023-11-27T08:42:46.987Z,61.25
2023-11-27T08:45:48.929Z,61.14
2023-11-27T08:48:50.918Z,61.42
2023-11-27T08:51:52.931Z,61.34
2023-11-27T08:54:55.156Z,61.12
2023-11-27T08:57:59.457Z,61.54
2023-11-27T09:01:06.503Z,61.13
2023-11-27T09:04:10.363Z,61.10
2023-11-27T09:07:13.332Z,61.44
2023-11-27T09:10:15.272Z,61.29
2023-11-27T09:13:17.283Z,61.17
2023-11-27T09:16:19.962Z,60.88
2023-11-27T09:19:22.530Z,60.51
2023-11-27T09:22:24.508Z,60.41
2023-11-27T09:25:26.611Z,60.59
2023-11-27T09:28:28.785Z,60.86
2023-11-27T09:31:30.950Z,60.82
2023-11-27T09:34:33.141Z,60.31
2023-11-27T09:37:37.468Z,60.45
2023-11-27T09:40:43.452Z,60.81
2023-11-27T09:43:46.264Z,60.51
2023-11-27T09:46:51.347Z,60.12
2023-11-27T09:49:59.399Z,60.35
2023-11-27T09:53:09.641Z,59.91
2023-11-27T09:56:14.477Z,59.63
2023-11-27T09:59:18.492Z,59.25
2023-11-27T10:02:22.442Z,59.14
2023-11-27T10:05:24.784Z,59.06
2023-11-27T10:08:27.908Z,59.13
2023-11-27T10:11:30.371Z,59.15
2023-11-27T10:14:37.786Z,59.00
2023-11-27T10:17:43.245Z,59.01
2023-11-27T10:20:45.301Z,59.26
2023-11-27T10:23:47.340Z,59.02
2023-11-27T10:26:51.349Z,59.00
2023-11-27T10:29:54.333Z,59.07
2023-11-27T10:32:56.971Z,59.15
2023-11-27T10:35:59.118Z,59.57
2023-11-27T10:39:10.256Z,59.37
2023-11-27T10:42:12.543Z,59.32
2023-11-27T10:45:18.732Z,59.45
2023-11-27T10:48:29.939Z,59.75
2023-11-27T10:51:36.340Z,59.61
2023-11-27T10:54:42.729Z,59.45
2023-11-27T10:57:46.881Z,59.47
2023-11-27T11:00:56.590Z,59.53
2023-11-27T11:04:10.604Z,59.40
2023-11-27T11:07:23.142Z,59.71
2023-11-27T11:10:28.132Z,58.91
2023-11-27T11:13:31.544Z,59.65
2023-11-27T11:16:46.137Z,59.69
2023-11-27T11:20:14.837Z,59.77
2023-11-27T11:23:44.358Z,59.75
2023-11-27T11:27:18.881Z,59.89
2023-11-27T11:30:22.317Z,59.91
2023-11-27T11:33:25.202Z,59.72
2023-11-27T11:36:32.706Z,59.62
2023-11-27T11:39:35.424Z,59.44
2023-11-27T11:42:37.773Z,59.66
2023-11-27T11:45:42.147Z,59.84
2023-11-27T11:48:44.686Z,59.60
2023-11-27T11:52:07.365Z,59.62
2023-11-27T11:55:22.498Z,59.95
2023-11-27T11:58:24.477Z,59.79
2023-11-27T12:01:36.059Z,59.70
2023-11-27T12:04:44.714Z,59.65
2023-11-27T12:07:46.893Z,59.78
2023-11-27T12:10:50.341Z,59.59
2023-11-27T12:13:52.758Z,59.53
2023-11-27T12:16:55.399Z,59.53
2023-11-27T12:19:59.214Z,59.50
2023-11-27T12:23:01.582Z,59.55
2023-11-27T12:26:07.994Z,59.40
2023-11-27T12:29:12.707Z,59.01
2023-11-27T12:32:14.702Z,58.66
2023-11-27T12:35:17.689Z,58.39
2023-11-27T12:38:19.896Z,58.17
2023-11-27T12:41:35.809Z,58.11
2023-11-27T12:44:39.073Z,58.37
2023-11-27T12:47:41.059Z,59.17
2023-11-27T12:50:43.081Z,59.35
2023-11-27T12:53:51.740Z,59.31
2023-11-27T12:57:00.486Z,59.34
2023-11-27T13:00:02.473Z,59.30
2023-11-27T13:03:05.141Z,59.44
2023-11-27T13:06:07.393Z,59.63
2023-11-27T13:09:09.420Z,59.90
2023-11-27T13:12:17.902Z,60.04
2023-11-27T13:15:23.379Z,60.00
2023-11-27T13:18:30.028Z,60.12
2023-11-27T13:21:33.770Z,60.10
2023-11-27T13:24:38.263Z,60.42
2023-11-27T13:27:46.786Z,60.40
2023-11-27T13:31:01.157Z,60.61
2023-11-27T13:34:23.221Z,61.25
2023-11-27T13:37:28.834Z,61.04
2023-11-27T13:40:38.173Z,61.17
2023-11-27T13:43:42.074Z,61.49
2023-11-27T13:46:44.348Z,61.68
2023-11-27T13:49:49.752Z,61.79
2023-11-27T13:52:51.831Z,61.75
2023-11-27T13:55:56.725Z,61.83
2023-11-27T13:59:01.543Z,61.71
2023-11-27T14:02:11.576Z,61.61
2023-11-27T14:05:21.605Z,61.52
2023-11-27T14:08:45.440Z,62.04
2023-11-27T14:11:50.309Z,62.21
2023-11-27T14:15:06.972Z,62.49
2023-11-27T14:18:22.600Z,62.44
2023-11-27T14:21:31.576Z,62.77
2023-11-27T14:24:57.147Z,62.96
2023-11-27T14:28:17.968Z,63.01
2023-11-27T14:31:20.277Z,63.30
2023-11-27T14:34:26.978Z,63.40
2023-11-27T14:37:31.747Z,63.92
2023-11-27T14:40:33.880Z,63.79
2023-11-27T14:43:36.034Z,64.24
2023-11-27T14:46:38.237Z,64.53
2023-11-27T14:49:43.176Z,65.16
2023-11-27T14:52:48.567Z,64.93
2023-11-27T14:55:53.582Z,65.24
2023-11-27T14:58:57.832Z,65.16
2023-11-27T15:02:00.150Z,65.36
2023-11-27T15:05:03.484Z,65.47
2023-11-27T15:08:06.776Z,65.65
2023-11-27T15:11:08.809Z,65.88
2023-11-27T15:14:10.806Z,66.02
2023-11-27T15:17:12.991Z,66.17
2023-11-27T15:20:16.218Z,66.16
2023-11-27T15:23:19.076Z,66.01
2023-11-27T15:26:23.247Z,65.92
2023-11-27T15:29:31.405Z,66.27
2023-11-27T15:32:33.468Z,66.30
2023-11-27T15:35:36.377Z,65.85
2023-11-27T15:38:38.391Z,66.31
2023-11-27T15:41:40.362Z,66.70
2023-11-27T15:44:44.228Z,66.75
2023-11-27T15:47:46.571Z,66.72
2023-11-27T15:50:48.726Z,66.81
2023-11-27T15:53:50.723Z,66.73
2023-11-27T15:56:53.059Z,66.96
2023-11-27T15:59:55.102Z,67.18
2023-11-27T16:02:59.253Z,67.51
2023-11-27T16:06:03.815Z,67.05
2023-11-27T16:09:09.673Z,67.34
2023-11-27T16:12:12.007Z,67.29
2023-11-27T16:15:17.717Z,67.15
2023-11-27T16:18:27.834Z,66.98
2023-11-27T16:21:29.826Z,66.88
2023-11-27T16:24:32.175Z,67.24
2023-11-27T16:27:35.382Z,67.07
2023-11-27T16:30:37.477Z,67.19
2023-11-27T16:33:40.265Z,67.43
2023-11-27T16:36:43.232Z,67.48
2023-11-27T16:39:45.904Z,67.78
2023-11-27T16:42:53.446Z,67.58
2023-11-27T16:45:58.464Z,67.86
2023-11-27T16:49:02.047Z,67.67
2023-11-27T16:52:04.517Z,68.29
2023-11-27T16:55:08.345Z,68.53
2023-11-27T16:58:12.078Z,68.50
2023-11-27T17:01:17.393Z,68.40
2023-11-27T17:04:19.740Z,67.85
2023-11-27T17:07:21.786Z,68.51
2023-11-27T17:10:24.748Z,68.56
2023-11-27T17:13:26.729Z,68.73
2023-11-27T17:16:29.768Z,68.38
2023-11-27T17:19:32.759Z,68.97
2023-11-27T17:22:34.707Z,68.94
2023-11-27T17:25:37.536Z,68.85
2023-11-27T17:28:39.896Z,68.68
2023-11-27T17:31:41.830Z,68.91
2023-11-27T17:34:43.893Z,69.08
2023-11-27T17:37:47.563Z,68.82
2023-11-27T17:40:49.642Z,69.13
2023-11-27T17:43:51.572Z,69.30
2023-11-27T17:46:54.012Z,69.27
2023-11-27T17:49:56.189Z,69.41
2023-11-27T17:52:58.859Z,69.37
2023-11-27T17:56:04.470Z,69.13
2023-11-27T17:59:06.601Z,69.19
2023-11-27T18:02:11.622Z,69.52
2023-11-27T18:05:23.730Z,69.56
2023-11-27T18:08:26.975Z,69.37
2023-11-27T18:11:28.971Z,69.58
2023-11-27T18:14:30.849Z,69.38
2023-11-27T18:17:32.885Z,69.41
2023-11-27T18:20:35.136Z,69.38
2023-11-27T18:23:37.116Z,69.51
2023-11-27T18:26:39.156Z,69.65
2023-11-27T18:29:41.174Z,69.45
2023-11-27T18:32:45.473Z,69.31
2023-11-27T18:35:48.797Z,70.13
2023-11-27T18:38:51.054Z,70.19
2023-11-27T18:41:53.040Z,70.38
2023-11-27T18:44:55.033Z,70.37
2023-11-27T18:47:57.857Z,70.63
2023-11-27T18:50:59.980Z,70.96
2023-11-27T18:54:01.928Z,71.08
2023-11-27T18:57:04.178Z,71.84
2023-11-27T19:00:07.032Z,71.67
2023-11-27T19:03:09.199Z,71.88
2023-11-27T19:06:11.535Z,72.02
2023-11-27T19:09:19.534Z,72.13
2023-11-27T19:12:21.471Z,72.21
2023-11-27T19:15:24.682Z,72.70
2023-11-27T19:18:28.997Z,72.91
2023-11-27T19:21:30.997Z,72.86
2023-11-27T19:24:32.990Z,73.03
2023-11-27T19:27:39.046Z,73.39
2023-11-27T19:30:44.571Z,73.42
2023-11-27T19:33:47.725Z,73.58
2023-11-27T19:36:49.813Z,73.78
2023-11-27T19:39:51.920Z,73.94
2023-11-27T19:42:53.795Z,74.33
2023-11-27T19:45:55.893Z,74.18
2023-11-27T19:48:57.924Z,74.60
2023-11-27T19:52:00.437Z,75.10
2023-11-27T19:55:02.454Z,75.39
2023-11-27T19:58:06.071Z,75.87
2023-11-27T20:01:08.959Z,76.34
2023-11-27T20:04:12.450Z,76.61
2023-11-27T20:07:14.611Z,76.73
2023-11-27T20:10:16.970Z,77.15
2023-11-27T20:13:20.065Z,76.90
2023-11-27T20:16:22.126Z,77.12
2023-11-27T20:19:24.151Z,77.04
2023-11-27T20:22:26.214Z,76.98
2023-11-27T20:25:29.716Z,77.14
2023-11-27T20:28:31.717Z,77.16
2023-11-27T20:31:37.808Z,77.27
2023-11-27T20:34:41.647Z,77.19
2023-11-27T20:37:43.624Z,77.46
2023-11-27T20:40:45.572Z,77.44
2023-11-27T20:43:48.341Z,77.68
2023-11-27T20:46:51.303Z,77.81
2023-11-27T20:49:56.016Z,77.74
2023-11-27T20:52:58.415Z,77.86
2023-11-27T20:56:00.486Z,78.23
2023-11-27T20:59:02.433Z,77.97
2023-11-27T21:02:05.448Z,78.02
2023-11-27T21:05:08.623Z,78.03
2023-11-27T21:08:11.545Z,78.35
2023-11-27T21:11:13.635Z,78.17
2023-11-27T21:14:15.512Z,78.14
2023-11-27T21:17:20.923Z,78.28
2023-11-27T21:20:22.980Z,78.37
2023-11-27T21:23:24.864Z,78.70
2023-11-27T21:26:28.325Z,78.14
2023-11-27T21:29:30.474Z,78.19
2023-11-27T21:32:32.654Z,78.20
2023-11-27T21:35:34.838Z,78.53
2023-11-27T21:38:37.009Z,78.50
2023-11-27T21:41:39.024Z,78.52
2023-11-27T21:44:41.745Z,78.62
2023-11-27T21:47:43.837Z,78.87
2023-11-27T21:50:45.810Z,79.00
2023-11-27T21:53:47.958Z,78.94
2023-11-27T21:56:49.836Z,79.07
2023-11-27T21:59:54.250Z,78.97
2023-11-27T22:02:56.327Z,79.05
2023-11-27T22:06:00.280Z,79.52
2023-11-27T22:09:02.379Z,79.11
2023-11-27T22:12:04.562Z,79.29
2023-11-27T22:15:07.448Z,79.46
2023-11-27T22:18:09.469Z,79.00
2023-11-27T22:21:11.453Z,79.36
2023-11-27T22:24:13.593Z,79.56
2023-11-27T22:27:15.515Z,80.02
2023-11-27T22:30:17.506Z,79.86
2023-11-27T22:33:19.455Z,79.68
2023-11-27T22:36:22.671Z,79.76
2023-11-27T22:39:25.051Z,79.80
2023-11-27T22:42:27.031Z,79.91
2023-11-27T22:45:28.989Z,80.20
2023-11-27T22:48:31.111Z,80.23
2023-11-27T22:51:33.348Z,80.28
2023-11-27T22:54:35.335Z,80.52
2023-11-27T22:57:37.358Z,80.41
2023-11-27T23:00:39.339Z,80.29
2023-11-27T23:03:41.365Z,80.29
2023-11-27T23:06:43.595Z,80.37
2023-11-27T23:09:45.566Z,80.51
2023-11-27T23:12:48.442Z,80.36
2023-11-27T23:15:50.314Z,80.24
2023-11-27T23:18:52.884Z,80.39
2023-11-27T23:21:54.864Z,80.74
2023-11-27T23:24:56.737Z,80.31
2023-11-27T23:27:58.681Z,80.45
2023-11-27T23:31:02.263Z,80.16
2023-11-27T23:34:05.123Z,80.31
2023-11-27T23:37:07.998Z,80.33
2023-11-27T23:40:10.615Z,80.62
2023-11-27T23:43:12.800Z,80.62
2023-11-27T23:46:14.941Z,80.37
2023-11-27T23:49:16.849Z,80.22
2023-11-27T23:52:18.839Z,80.24
2023-11-27T23:55:21.501Z,80.03
2023-11-27T23:58:23.462Z,80.32
